PWSweather.com
Personal Weather Stations
Station Observations
COONRAPIDS
Minneapolis, MN 55433

Minneapolis, MN 55433

Lat: 45.187721, Lon: -93.36828

Elevation: 898

Station Type: Davis Vantage Pro 2

High Low Average
Temperature 29.8°F-1.2°C 20.1°F-6.6°C 26.5°F-3.1°C
Dew Point 25.6°F-3.6°C 14.6°F-9.7°C 22.4°F-5.3°C
Winds 5.8 mph 9.3 kmh Calm Calm 2.0 mph ENE3.2 kmh ENE
Wind Gusts 11.5 mph18.5 kmh -- 4.0 mph6.4 kmh
Humidity 87% 79% 84%
Pressure 30.08 in1018.6 mb 29.78 in1008.5 mb -
Precipitation 0.00 in0.0 mm - -
Hour Temp Dew Point Humidity Winds Wind Gusts Pressure Precip Precip Rate Daily Precip Total
12:00 AM 29.1°F-1.6°C 25.2°F-3.8°C 85% Calm Calm -- 29.79 in1008.8 mb - 0.00 in0.0 mm 0.00 in0.0 mm
12:10 AM 29.1°F-1.6°C 25.2°F-3.8°C 85% Calm Calm -- 29.79 in1008.8 mb - 0.00 in0.0 mm 0.00 in0.0 mm
12:20 AM 29.2°F-1.6°C 25.2°F-3.8°C 85% Calm Calm -- 29.79 in1008.8 mb - 0.00 in0.0 mm 0.00 in0.0 mm
12:30 AM 29.2°F-1.6°C 25.2°F-3.8°C 85% Calm Calm -- 29.79 in1008.8 mb - 0.00 in0.0 mm 0.00 in0.0 mm
12:40 AM 29.2°F-1.6°C 25.3°F-3.7°C 85% Calm Calm 1.2 mph1.9 kmh 29.79 in1008.8 mb - 0.00 in0.0 mm 0.00 in0.0 mm
12:50 AM 29.2°F-1.6°C 25.2°F-3.8°C 85% Calm Calm -- 29.79 in1008.8 mb - 0.00 in0.0 mm 0.00 in0.0 mm
01:00 AM 29.2°F-1.6°C 25.0°F-3.9°C 84% Calm Calm -- 29.79 in1008.8 mb - 0.00 in0.0 mm 0.00 in0.0 mm
01:10 AM 29.2°F-1.6°C 25.0°F-3.9°C 84% Calm Calm -- 29.78 in1008.5 mb - 0.00 in0.0 mm 0.00 in0.0 mm
01:20 AM 29.2°F-1.6°C 25.0°F-3.9°C 84% Calm Calm -- 29.78 in1008.5 mb - 0.00 in0.0 mm 0.00 in0.0 mm
01:30 AM 29.3°F-1.5°C 25.1°F-3.8°C 84% Calm Calm -- 29.78 in1008.5 mb - 0.00 in0.0 mm 0.00 in0.0 mm
01:40 AM 29.3°F-1.5°C 25.1°F-3.8°C 84% Calm Calm -- 29.79 in1008.8 mb - 0.00 in0.0 mm 0.00 in0.0 mm
01:50 AM 29.3°F-1.5°C 25.1°F-3.8°C 84% Calm Calm -- 29.78 in1008.5 mb - 0.00 in0.0 mm 0.00 in0.0 mm
02:00 AM 29.4°F-1.4°C 25.2°F-3.8°C 84% Calm Calm -- 29.78 in1008.5 mb - 0.00 in0.0 mm 0.00 in0.0 mm
02:10 AM 29.5°F-1.4°C 25.3°F-3.7°C 84% Calm Calm -- 29.78 in1008.5 mb - 0.00 in0.0 mm 0.00 in0.0 mm
02:20 AM 29.6°F-1.3°C 25.4°F-3.7°C 84% Calm Calm -- 29.79 in1008.8 mb - 0.00 in0.0 mm 0.00 in0.0 mm
02:30 AM 29.7°F-1.3°C 25.5°F-3.6°C 84% Calm Calm -- 29.78 in1008.5 mb - 0.00 in0.0 mm 0.00 in0.0 mm
02:40 AM 29.8°F-1.2°C 25.6°F-3.6°C 84% Calm Calm -- 29.79 in1008.8 mb - 0.00 in0.0 mm 0.00 in0.0 mm
02:50 AM 29.8°F-1.2°C 25.5°F-3.6°C 84% Calm Calm -- 29.80 in1009.1 mb - 0.00 in0.0 mm 0.00 in0.0 mm
03:00 AM 29.6°F-1.3°C 25.4°F-3.7°C 84% Calm Calm -- 29.81 in1009.5 mb - 0.00 in0.0 mm 0.00 in0.0 mm
03:10 AM 29.3°F-1.5°C 25.1°F-3.8°C 84% Calm Calm -- 29.80 in1009.1 mb - 0.00 in0.0 mm 0.00 in0.0 mm
03:20 AM 28.8°F-1.8°C 24.6°F-4.1°C 84% Calm Calm -- 29.80 in1009.1 mb - 0.00 in0.0 mm 0.00 in0.0 mm
03:30 AM 28.4°F-2.0°C 24.2°F-4.3°C 84% Calm Calm -- 29.80 in1009.1 mb - 0.00 in0.0 mm 0.00 in0.0 mm
03:40 AM 28.1°F-2.2°C 24.2°F-4.3°C 85% Calm Calm -- 29.80 in1009.1 mb - 0.00 in0.0 mm 0.00 in0.0 mm
03:50 AM 28.1°F-2.2°C 24.2°F-4.3°C 85% Calm Calm -- 29.79 in1008.8 mb - 0.00 in0.0 mm 0.00 in0.0 mm
04:00 AM 28.3°F-2.1°C 24.4°F-4.2°C 85% Calm Calm -- 29.79 in1008.8 mb - 0.00 in0.0 mm 0.00 in0.0 mm
04:10 AM 28.4°F-2.0°C 24.7°F-4.1°C 86% Calm Calm -- 29.78 in1008.5 mb - 0.00 in0.0 mm 0.00 in0.0 mm
04:20 AM 28.5°F-1.9°C 24.8°F-4.0°C 86% Calm Calm -- 29.78 in1008.5 mb - 0.00 in0.0 mm 0.00 in0.0 mm
04:30 AM 28.5°F-1.9°C 24.8°F-4.0°C 86% Calm Calm 2.3 mph3.7 kmh 29.78 in1008.5 mb - 0.00 in0.0 mm 0.00 in0.0 mm
04:40 AM 28.5°F-1.9°C 24.8°F-4.0°C 86% Calm Calm -- 29.78 in1008.5 mb - 0.00 in0.0 mm 0.00 in0.0 mm
04:50 AM 28.5°F-1.9°C 25.1°F-3.8°C 87% Calm Calm -- 29.78 in1008.5 mb - 0.00 in0.0 mm 0.00 in0.0 mm
05:00 AM 28.6°F-1.9°C 25.2°F-3.8°C 87% Calm Calm -- 29.78 in1008.5 mb - 0.00 in0.0 mm 0.00 in0.0 mm
05:10 AM 28.7°F-1.8°C 25.3°F-3.7°C 87% Calm Calm -- 29.78 in1008.5 mb - 0.00 in0.0 mm 0.00 in0.0 mm
05:20 AM 28.7°F-1.8°C 25.4°F-3.7°C 87% Calm Calm -- 29.78 in1008.5 mb - 0.00 in0.0 mm 0.00 in0.0 mm
05:30 AM 28.8°F-1.8°C 25.4°F-3.7°C 87% Calm Calm -- 29.79 in1008.8 mb - 0.00 in0.0 mm 0.00 in0.0 mm
05:40 AM 28.8°F-1.8°C 25.4°F-3.7°C 87% 1.2 mph NE1.9 kmh NE 2.3 mph3.7 kmh 29.80 in1009.1 mb - 0.00 in0.0 mm 0.00 in0.0 mm
05:50 AM 28.9°F-1.7°C 25.5°F-3.6°C 87% 1.2 mph NE1.9 kmh NE 2.3 mph3.7 kmh 29.82 in1009.8 mb - 0.00 in0.0 mm 0.00 in0.0 mm
06:00 AM 28.9°F-1.7°C 25.5°F-3.6°C 87% 2.3 mph NE3.7 kmh NE 3.5 mph5.6 kmh 29.83 in1010.2 mb - 0.00 in0.0 mm 0.00 in0.0 mm
06:10 AM 28.9°F-1.7°C 25.5°F-3.6°C 87% Calm Calm 3.5 mph5.6 kmh 29.84 in1010.5 mb - 0.00 in0.0 mm 0.00 in0.0 mm
06:20 AM 28.9°F-1.7°C 25.5°F-3.6°C 87% Calm Calm 3.5 mph5.6 kmh 29.84 in1010.5 mb - 0.00 in0.0 mm 0.00 in0.0 mm
06:30 AM 28.9°F-1.7°C 25.5°F-3.6°C 87% Calm Calm -- 29.84 in1010.5 mb - 0.00 in0.0 mm 0.00 in0.0 mm
06:40 AM 28.8°F-1.8°C 25.4°F-3.7°C 87% 1.2 mph NNE1.9 kmh NNE 3.5 mph5.6 kmh 29.84 in1010.5 mb - 0.00 in0.0 mm 0.00 in0.0 mm
06:50 AM 28.8°F-1.8°C 25.4°F-3.7°C 87% Calm Calm -- 29.85 in1010.8 mb - 0.00 in0.0 mm 0.00 in0.0 mm
07:00 AM 28.7°F-1.8°C 25.3°F-3.7°C 87% 1.2 mph NE1.9 kmh NE 3.5 mph5.6 kmh 29.83 in1010.2 mb - 0.00 in0.0 mm 0.00 in0.0 mm
07:10 AM 28.5°F-1.9°C 25.1°F-3.8°C 87% 2.3 mph NE3.7 kmh NE 5.8 mph9.3 kmh 29.82 in1009.8 mb - 0.00 in0.0 mm 0.00 in0.0 mm
07:20 AM 28.4°F-2.0°C 25.0°F-3.9°C 87% 1.2 mph N1.9 kmh N 2.3 mph3.7 kmh 29.84 in1010.5 mb - 0.00 in0.0 mm 0.00 in0.0 mm
07:30 AM 28.3°F-2.1°C 24.6°F-4.1°C 86% 1.2 mph N1.9 kmh N 3.5 mph5.6 kmh 29.84 in1010.5 mb - 0.00 in0.0 mm 0.00 in0.0 mm
07:40 AM 28.2°F-2.1°C 24.6°F-4.1°C 86% 2.3 mph NNE3.7 kmh NNE 4.6 mph7.4 kmh 29.83 in1010.2 mb - 0.00 in0.0 mm 0.00 in0.0 mm
07:50 AM 28.1°F-2.2°C 24.5°F-4.2°C 86% 2.3 mph NE3.7 kmh NE 3.5 mph5.6 kmh 29.83 in1010.2 mb - 0.00 in0.0 mm 0.00 in0.0 mm
08:00 AM 28.0°F-2.2°C 24.4°F-4.2°C 86% 1.2 mph NNE1.9 kmh NNE 3.5 mph5.6 kmh 29.85 in1010.8 mb - 0.00 in0.0 mm 0.00 in0.0 mm
08:10 AM 28.0°F-2.2°C 24.4°F-4.2°C 86% Calm Calm -- 29.86 in1011.2 mb - 0.00 in0.0 mm 0.00 in0.0 mm
08:20 AM 27.9°F-2.3°C 24.3°F-4.3°C 86% 2.3 mph NE3.7 kmh NE 4.6 mph7.4 kmh 29.85 in1010.8 mb - 0.00 in0.0 mm 0.00 in0.0 mm
08:30 AM 27.9°F-2.3°C 24.2°F-4.3°C 86% Calm Calm -- 29.84 in1010.5 mb - 0.00 in0.0 mm 0.00 in0.0 mm
08:40 AM 27.8°F-2.3°C 24.2°F-4.3°C 86% Calm Calm -- 29.85 in1010.8 mb - 0.00 in0.0 mm 0.00 in0.0 mm
08:50 AM 27.8°F-2.3°C 24.2°F-4.3°C 86% 3.5 mph NNE5.6 kmh NNE 4.6 mph7.4 kmh 29.86 in1011.2 mb - 0.00 in0.0 mm 0.00 in0.0 mm
09:00 AM 27.8°F-2.3°C 24.4°F-4.2°C 87% 2.3 mph NE3.7 kmh NE 4.6 mph7.4 kmh 29.87 in1011.5 mb - 0.00 in0.0 mm 0.00 in0.0 mm
09:10 AM 27.8°F-2.3°C 24.2°F-4.3°C 86% 3.5 mph NNE5.6 kmh NNE 5.8 mph9.3 kmh 29.88 in1011.9 mb - 0.00 in0.0 mm 0.00 in0.0 mm
09:20 AM 27.8°F-2.3°C 24.2°F-4.3°C 86% Calm Calm -- 29.87 in1011.5 mb - 0.00 in0.0 mm 0.00 in0.0 mm
09:30 AM 27.9°F-2.3°C 24.3°F-4.3°C 86% 2.3 mph NE3.7 kmh NE 3.5 mph5.6 kmh 29.88 in1011.9 mb - 0.00 in0.0 mm 0.00 in0.0 mm
09:40 AM 27.9°F-2.3°C 24.0°F-4.4°C 85% 3.5 mph NE5.6 kmh NE 11.5 mph18.5 kmh 29.88 in1011.9 mb - 0.00 in0.0 mm 0.00 in0.0 mm
09:50 AM 28.0°F-2.2°C 23.7°F-4.6°C 84% 2.3 mph NNE3.7 kmh NNE 3.5 mph5.6 kmh 29.89 in1012.2 mb - 0.00 in0.0 mm 0.00 in0.0 mm
10:00 AM 28.0°F-2.2°C 23.8°F-4.6°C 84% 2.3 mph NNE3.7 kmh NNE 5.8 mph9.3 kmh 29.89 in1012.2 mb - 0.00 in0.0 mm 0.00 in0.0 mm
10:10 AM 28.0°F-2.2°C 23.8°F-4.6°C 84% 3.5 mph NE5.6 kmh NE 8.1 mph13.0 kmh 29.90 in1012.5 mb - 0.00 in0.0 mm 0.00 in0.0 mm
10:20 AM 28.0°F-2.2°C 23.7°F-4.6°C 84% 3.5 mph NNE5.6 kmh NNE 6.9 mph11.1 kmh 29.90 in1012.5 mb - 0.00 in0.0 mm 0.00 in0.0 mm
10:30 AM 27.9°F-2.3°C 23.4°F-4.8°C 83% 2.3 mph NNE3.7 kmh NNE 3.5 mph5.6 kmh 29.90 in1012.5 mb - 0.00 in0.0 mm 0.00 in0.0 mm
10:40 AM 27.6°F-2.4°C 23.1°F-4.9°C 83% 2.3 mph N3.7 kmh N 3.5 mph5.6 kmh 29.91 in1012.9 mb - 0.00 in0.0 mm 0.00 in0.0 mm
10:50 AM 27.3°F-2.6°C 22.8°F-5.1°C 83% 1.2 mph NNE1.9 kmh NNE 11.5 mph18.5 kmh 29.91 in1012.9 mb - 0.00 in0.0 mm 0.00 in0.0 mm
11:00 AM 26.8°F-2.9°C 22.0°F-5.6°C 82% 1.2 mph NNE1.9 kmh NNE 4.6 mph7.4 kmh 29.90 in1012.5 mb - 0.00 in0.0 mm 0.00 in0.0 mm
11:10 AM 26.3°F-3.2°C 21.5°F-5.8°C 82% 1.2 mph NNE1.9 kmh NNE 3.5 mph5.6 kmh 29.90 in1012.5 mb - 0.00 in0.0 mm 0.00 in0.0 mm
11:20 AM 25.9°F-3.4°C 21.1°F-6.1°C 82% 5.8 mph NNE9.3 kmh NNE 8.1 mph13.0 kmh 29.89 in1012.2 mb - 0.00 in0.0 mm 0.00 in0.0 mm
11:30 AM 25.6°F-3.6°C 20.5°F-6.4°C 81% 4.6 mph NNE7.4 kmh NNE 8.1 mph13.0 kmh 29.89 in1012.2 mb - 0.00 in0.0 mm 0.00 in0.0 mm
11:40 AM 25.3°F-3.7°C 20.3°F-6.5°C 81% 4.6 mph NNE7.4 kmh NNE 8.1 mph13.0 kmh 29.90 in1012.5 mb - 0.00 in0.0 mm 0.00 in0.0 mm
11:50 AM 25.2°F-3.8°C 20.2°F-6.6°C 81% 2.3 mph NE3.7 kmh NE 4.6 mph7.4 kmh 29.90 in1012.5 mb - 0.00 in0.0 mm 0.00 in0.0 mm
12:00 PM 25.1°F-3.8°C 20.1°F-6.6°C 81% 3.5 mph NNE5.6 kmh NNE 3.5 mph5.6 kmh 29.90 in1012.5 mb - 0.00 in0.0 mm 0.00 in0.0 mm
12:10 PM 25.0°F-3.9°C 20.0°F-6.7°C 81% 2.3 mph NNE3.7 kmh NNE 4.6 mph7.4 kmh 29.90 in1012.5 mb - 0.00 in0.0 mm 0.00 in0.0 mm
12:20 PM 24.9°F-3.9°C 19.9°F-6.7°C 81% 3.5 mph N5.6 kmh N 6.9 mph11.1 kmh 29.89 in1012.2 mb - 0.00 in0.0 mm 0.00 in0.0 mm
12:30 PM 24.7°F-4.1°C 19.7°F-6.8°C 81% 2.3 mph NNE3.7 kmh NNE 5.8 mph9.3 kmh 29.89 in1012.2 mb - 0.00 in0.0 mm 0.00 in0.0 mm
12:40 PM 24.5°F-4.2°C 19.5°F-6.9°C 81% 3.5 mph NNE5.6 kmh NNE 5.8 mph9.3 kmh 29.89 in1012.2 mb - 0.00 in0.0 mm 0.00 in0.0 mm
12:50 PM 24.3°F-4.3°C 19.6°F-6.9°C 82% 3.5 mph NNE5.6 kmh NNE 4.6 mph7.4 kmh 29.89 in1012.2 mb - 0.00 in0.0 mm 0.00 in0.0 mm
01:00 PM 24.0°F-4.4°C 19.6°F-6.9°C 83% 3.5 mph NNE5.6 kmh NNE 8.1 mph13.0 kmh 29.88 in1011.9 mb - 0.00 in0.0 mm 0.00 in0.0 mm
01:10 PM 24.0°F-4.4°C 19.9°F-6.7°C 84% 2.3 mph NE3.7 kmh NE 6.9 mph11.1 kmh 29.89 in1012.2 mb - 0.00 in0.0 mm 0.00 in0.0 mm
01:20 PM 23.9°F-4.5°C 19.8°F-6.8°C 84% 1.2 mph NNE1.9 kmh NNE 4.6 mph7.4 kmh 29.90 in1012.5 mb - 0.00 in0.0 mm 0.00 in0.0 mm
01:30 PM 23.8°F-4.6°C 19.7°F-6.8°C 84% 5.8 mph N9.3 kmh N 8.1 mph13.0 kmh 29.90 in1012.5 mb - 0.00 in0.0 mm 0.00 in0.0 mm
01:40 PM 23.7°F-4.6°C 19.6°F-6.9°C 84% 2.3 mph N3.7 kmh N 4.6 mph7.4 kmh 29.91 in1012.9 mb - 0.00 in0.0 mm 0.00 in0.0 mm
01:50 PM 23.7°F-4.6°C 19.6°F-6.9°C 84% 2.3 mph NNE3.7 kmh NNE 6.9 mph11.1 kmh 29.91 in1012.9 mb - 0.00 in0.0 mm 0.00 in0.0 mm
02:00 PM 23.6°F-4.7°C 19.5°F-6.9°C 84% 4.6 mph NE7.4 kmh NE 6.9 mph11.1 kmh 29.91 in1012.9 mb - 0.00 in0.0 mm 0.00 in0.0 mm
02:10 PM 23.6°F-4.7°C 19.5°F-6.9°C 84% 2.3 mph NNE3.7 kmh NNE 4.6 mph7.4 kmh 29.92 in1013.2 mb - 0.00 in0.0 mm 0.00 in0.0 mm
02:20 PM 23.6°F-4.7°C 19.5°F-6.9°C 84% 2.3 mph N3.7 kmh N 5.8 mph9.3 kmh 29.92 in1013.2 mb - 0.00 in0.0 mm 0.00 in0.0 mm
02:30 PM 23.5°F-4.7°C 19.4°F-7.0°C 84% 4.6 mph N7.4 kmh N 6.9 mph11.1 kmh 29.93 in1013.5 mb - 0.00 in0.0 mm 0.00 in0.0 mm
02:40 PM 23.6°F-4.7°C 19.4°F-7.0°C 84% 3.5 mph N5.6 kmh N 5.8 mph9.3 kmh 29.93 in1013.5 mb - 0.00 in0.0 mm 0.00 in0.0 mm
02:50 PM 23.3°F-4.8°C 19.1°F-7.2°C 84% 4.6 mph N7.4 kmh N 6.9 mph11.1 kmh 29.95 in1014.2 mb - 0.00 in0.0 mm 0.00 in0.0 mm
03:00 PM 23.0°F-5.0°C 18.9°F-7.3°C 84% 1.2 mph N1.9 kmh N 3.5 mph5.6 kmh 29.95 in1014.2 mb - 0.00 in0.0 mm 0.00 in0.0 mm
03:10 PM 22.8°F-5.1°C 18.7°F-7.4°C 84% 3.5 mph N5.6 kmh N 8.1 mph13.0 kmh 29.95 in1014.2 mb - 0.00 in0.0 mm 0.00 in0.0 mm
03:20 PM 22.7°F-5.2°C 18.6°F-7.4°C 84% 3.5 mph N5.6 kmh N 11.5 mph18.5 kmh 29.96 in1014.6 mb - 0.00 in0.0 mm 0.00 in0.0 mm
03:30 PM 22.5°F-5.3°C 18.4°F-7.6°C 84% 1.2 mph NNE1.9 kmh NNE 3.5 mph5.6 kmh 29.97 in1014.9 mb - 0.00 in0.0 mm 0.00 in0.0 mm
03:40 PM 22.2°F-5.4°C 18.1°F-7.7°C 84% Calm Calm 3.5 mph5.6 kmh 29.98 in1015.2 mb - 0.00 in0.0 mm 0.00 in0.0 mm
03:50 PM 22.0°F-5.6°C 17.9°F-7.8°C 84% 4.6 mph N7.4 kmh N 9.2 mph14.8 kmh 29.98 in1015.2 mb - 0.00 in0.0 mm 0.00 in0.0 mm
04:00 PM 21.8°F-5.7°C 17.7°F-7.9°C 84% 3.5 mph N5.6 kmh N 6.9 mph11.1 kmh 29.99 in1015.6 mb - 0.00 in0.0 mm 0.00 in0.0 mm
04:10 PM 21.7°F-5.7°C 17.3°F-8.2°C 83% 3.5 mph N5.6 kmh N 4.6 mph7.4 kmh 30.00 in1015.9 mb - 0.00 in0.0 mm 0.00 in0.0 mm
04:20 PM 21.5°F-5.8°C 17.1°F-8.3°C 83% 4.6 mph N7.4 kmh N 9.2 mph14.8 kmh 30.00 in1015.9 mb - 0.00 in0.0 mm 0.00 in0.0 mm
04:30 PM 21.3°F-5.9°C 16.7°F-8.5°C 82% 3.5 mph N5.6 kmh N 4.6 mph7.4 kmh 30.00 in1015.9 mb - 0.00 in0.0 mm 0.00 in0.0 mm
04:40 PM 21.2°F-6.0°C 16.6°F-8.6°C 82% Calm Calm 3.5 mph5.6 kmh 30.02 in1016.6 mb - 0.00 in0.0 mm 0.00 in0.0 mm
04:50 PM 21.1°F-6.1°C 16.2°F-8.8°C 81% 3.5 mph N5.6 kmh N 5.8 mph9.3 kmh 30.02 in1016.6 mb - 0.00 in0.0 mm 0.00 in0.0 mm
05:00 PM 20.9°F-6.2°C 15.9°F-8.9°C 81% 4.6 mph N7.4 kmh N 10.4 mph16.7 kmh 30.04 in1017.3 mb - 0.00 in0.0 mm 0.00 in0.0 mm
05:10 PM 20.6°F-6.3°C 15.7°F-9.1°C 81% 2.3 mph N3.7 kmh N 8.1 mph13.0 kmh 30.04 in1017.3 mb - 0.00 in0.0 mm 0.00 in0.0 mm
05:20 PM 20.3°F-6.5°C 15.1°F-9.4°C 80% 1.2 mph NNE1.9 kmh NNE 8.1 mph13.0 kmh 30.05 in1017.6 mb - 0.00 in0.0 mm 0.00 in0.0 mm
05:30 PM 20.3°F-6.5°C 15.4°F-9.2°C 81% 4.6 mph N7.4 kmh N 4.6 mph7.4 kmh 30.06 in1017.9 mb - 0.00 in0.0 mm 0.00 in0.0 mm
05:40 PM 20.2°F-6.6°C 15.0°F-9.4°C 80% 2.3 mph NNE3.7 kmh NNE 3.5 mph5.6 kmh 30.06 in1017.9 mb - 0.00 in0.0 mm 0.00 in0.0 mm
05:50 PM 20.1°F-6.6°C 14.6°F-9.7°C 79% 3.5 mph N5.6 kmh N 4.6 mph7.4 kmh 30.08 in1018.6 mb - 0.00 in0.0 mm 0.00 in0.0 mm
06:00 PM 19.9°F-6.7°C 14.1°F-9.9°C 78% 3.5 mph N5.6 kmh N 11.5 mph18.5 kmh 30.09 in1019.0 mb - 0.00 in0.0 mm 0.00 in0.0 mm
06:10 PM 19.7°F-6.8°C 14.0°F-10.0°C 78% 2.3 mph N3.7 kmh N 5.8 mph9.3 kmh 30.09 in1019.0 mb - 0.00 in0.0 mm 0.00 in0.0 mm
06:20 PM 19.6°F-6.9°C 13.8°F-10.1°C 78% 6.9 mph NNE11.1 kmh NNE 9.2 mph14.8 kmh 30.10 in1019.3 mb - 0.00 in0.0 mm 0.00 in0.0 mm
06:30 PM 19.3°F-7.1°C 13.3°F-10.4°C 77% 2.3 mph N3.7 kmh N 2.3 mph3.7 kmh 30.11 in1019.6 mb - 0.00 in0.0 mm 0.00 in0.0 mm
06:40 PM 19.2°F-7.1°C 13.2°F-10.4°C 77% 2.3 mph NNE3.7 kmh NNE 4.6 mph7.4 kmh 30.12 in1020.0 mb - 0.00 in0.0 mm 0.00 in0.0 mm
06:50 PM 19.1°F-7.2°C 13.1°F-10.5°C 77% 3.5 mph N5.6 kmh N 5.8 mph9.3 kmh 30.12 in1020.0 mb - 0.00 in0.0 mm 0.00 in0.0 mm
07:00 PM 18.8°F-7.3°C 12.5°F-10.8°C 76% 3.5 mph N5.6 kmh N 10.4 mph16.7 kmh 30.12 in1020.0 mb - 0.00 in0.0 mm 0.00 in0.0 mm
07:10 PM 18.6°F-7.4°C 12.3°F-10.9°C 76% 2.3 mph N3.7 kmh N 5.8 mph9.3 kmh 30.13 in1020.3 mb - 0.00 in0.0 mm 0.00 in0.0 mm
07:20 PM 18.2°F-7.7°C 11.6°F-11.3°C 75% 2.3 mph N3.7 kmh N 8.1 mph13.0 kmh 30.13 in1020.3 mb - 0.00 in0.0 mm 0.00 in0.0 mm
07:30 PM 17.9°F-7.8°C 10.7°F-11.8°C 73% 2.3 mph NNW3.7 kmh NNW 5.8 mph9.3 kmh 30.14 in1020.7 mb - 0.00 in0.0 mm 0.00 in0.0 mm
07:40 PM 17.5°F-8.1°C 10.0°F-12.2°C 72% 3.5 mph N5.6 kmh N 6.9 mph11.1 kmh 30.15 in1021.0 mb - 0.00 in0.0 mm 0.00 in0.0 mm
07:50 PM 17.3°F-8.2°C 9.5°F-12.5°C 71% 4.6 mph N7.4 kmh N 9.2 mph14.8 kmh 30.15 in1021.0 mb - 0.00 in0.0 mm 0.00 in0.0 mm
08:00 PM 17.2°F-8.2°C 9.4°F-12.6°C 71% 2.3 mph N3.7 kmh N 4.6 mph7.4 kmh 30.16 in1021.3 mb - 0.00 in0.0 mm 0.00 in0.0 mm
08:10 PM 16.8°F-8.4°C 9.0°F-12.8°C 71% 3.5 mph N5.6 kmh N 10.4 mph16.7 kmh 30.17 in1021.7 mb - 0.00 in0.0 mm 0.00 in0.0 mm
08:20 PM 16.2°F-8.8°C 7.8°F-13.4°C 69% 2.3 mph N3.7 kmh N 5.8 mph9.3 kmh 30.17 in1021.7 mb - 0.00 in0.0 mm 0.00 in0.0 mm
08:30 PM 15.7°F-9.1°C 7.0°F-13.9°C 68% 3.5 mph NNE5.6 kmh NNE 5.8 mph9.3 kmh 30.17 in1021.7 mb - 0.00 in0.0 mm 0.00 in0.0 mm
08:40 PM 15.4°F-9.2°C 6.7°F-14.1°C 68% 2.3 mph NNW3.7 kmh NNW 3.5 mph5.6 kmh 30.18 in1022.0 mb - 0.00 in0.0 mm 0.00 in0.0 mm
08:50 PM 15.0°F-9.4°C 6.0°F-14.4°C 67% 2.3 mph N3.7 kmh N 3.5 mph5.6 kmh 30.19 in1022.4 mb - 0.00 in0.0 mm 0.00 in0.0 mm
09:00 PM 14.6°F-9.7°C 5.3°F-14.8°C 66% 1.2 mph N1.9 kmh N 2.3 mph3.7 kmh 30.20 in1022.7 mb - 0.00 in0.0 mm 0.00 in0.0 mm
09:10 PM 14.1°F-9.9°C 4.5°F-15.3°C 65% 1.2 mph NNE1.9 kmh NNE 3.5 mph5.6 kmh 30.21 in1023.0 mb - 0.00 in0.0 mm 0.00 in0.0 mm
09:20 PM 13.9°F-10.1°C 4.6°F-15.2°C 66% 1.2 mph N1.9 kmh N 2.3 mph3.7 kmh 30.22 in1023.4 mb - 0.00 in0.0 mm 0.00 in0.0 mm
09:30 PM 13.7°F-10.2°C 4.4°F-15.3°C 66% Calm Calm 2.3 mph3.7 kmh 30.23 in1023.7 mb - 0.00 in0.0 mm 0.00 in0.0 mm
09:40 PM 13.2°F-10.4°C 3.6°F-15.8°C 65% 3.5 mph NNE5.6 kmh NNE 8.1 mph13.0 kmh 30.24 in1024.0 mb - 0.00 in0.0 mm 0.00 in0.0 mm
09:50 PM 12.5°F-10.8°C 2.6°F-16.3°C 64% 2.3 mph NNE3.7 kmh NNE 6.9 mph11.1 kmh 30.25 in1024.4 mb - 0.00 in0.0 mm 0.00 in0.0 mm
10:00 PM 11.9°F-11.2°C 2.0°F-16.7°C 64% 1.2 mph NNE1.9 kmh NNE 3.5 mph5.6 kmh 30.26 in1024.7 mb - 0.00 in0.0 mm 0.00 in0.0 mm
10:10 PM 11.3°F-11.5°C 1.8°F-16.8°C 65% 3.5 mph NNW5.6 kmh NNW 8.1 mph13.0 kmh 30.27 in1025.1 mb - 0.00 in0.0 mm 0.00 in0.0 mm
10:20 PM 10.8°F-11.8°C 1.3°F-17.1°C 65% 2.3 mph NNE3.7 kmh NNE 3.5 mph5.6 kmh 30.28 in1025.4 mb - 0.00 in0.0 mm 0.00 in0.0 mm
10:30 PM 10.4°F-12.0°C 1.0°F-17.2°C 65% Calm Calm -- 30.29 in1025.7 mb - 0.00 in0.0 mm 0.00 in0.0 mm
10:40 PM 10.1°F-12.2°C 0.7°F-17.4°C 65% 2.3 mph N3.7 kmh N 5.8 mph9.3 kmh 30.29 in1025.7 mb - 0.00 in0.0 mm 0.00 in0.0 mm
10:50 PM 9.6°F-12.4°C 0.2°F-17.7°C 65% 2.3 mph N3.7 kmh N 3.5 mph5.6 kmh 30.30 in1026.1 mb - 0.00 in0.0 mm 0.00 in0.0 mm
11:00 PM 9.2°F-12.7°C -0.5°F-18.1°C 64% Calm Calm 2.3 mph3.7 kmh 30.31 in1026.4 mb - 0.00 in0.0 mm 0.00 in0.0 mm
11:10 PM 8.9°F-12.8°C -0.5°F-18.1°C 65% 2.3 mph N3.7 kmh N 6.9 mph11.1 kmh 30.32 in1026.8 mb - 0.00 in0.0 mm 0.00 in0.0 mm
11:20 PM 8.6°F-13.0°C -0.8°F-18.2°C 65% 1.2 mph N1.9 kmh N 2.3 mph3.7 kmh 30.32 in1026.8 mb - 0.00 in0.0 mm 0.00 in0.0 mm
11:30 PM 8.4°F-13.1°C -0.6°F-18.1°C 66% 2.3 mph N3.7 kmh N 3.5 mph5.6 kmh 30.32 in1026.8 mb - 0.00 in0.0 mm 0.00 in0.0 mm
11:40 PM 8.3°F-13.2°C -0.7°F-18.2°C 66% 1.2 mph N1.9 kmh N 3.5 mph5.6 kmh 30.33 in1027.1 mb - 0.00 in0.0 mm 0.00 in0.0 mm
11:50 PM 8.0°F-13.3°C -1.0°F-18.3°C 66% 2.3 mph N3.7 kmh N 3.5 mph5.6 kmh 30.33 in1027.1 mb - 0.00 in0.0 mm 0.00 in0.0 mm